createdAt,value
2018-04-14T00:00:01.151Z,7.84
2018-04-14T00:02:27.156Z,7.81
2018-04-14T00:04:53.217Z,7.78
2018-04-14T00:07:19.217Z,7.75
2018-04-14T00:09:45.236Z,7.72
2018-04-14T00:12:11.229Z,7.68
2018-04-14T00:14:37.339Z,7.65
2018-04-14T00:17:03.408Z,7.64
2018-04-14T00:19:29.421Z,7.60
2018-04-14T00:21:55.449Z,7.56
2018-04-14T00:24:21.481Z,7.51
2018-04-14T00:26:47.521Z,7.49
2018-04-14T00:29:13.573Z,7.48
2018-04-14T00:31:39.644Z,7.46
2018-04-14T00:34:05.675Z,7.43
2018-04-14T00:36:31.683Z,7.42
2018-04-14T00:38:57.722Z,7.39
2018-04-14T00:41:23.739Z,7.36
2018-04-14T00:43:49.756Z,7.35
2018-04-14T00:46:15.865Z,7.32
2018-04-14T00:48:42.118Z,7.29
2018-04-14T00:51:08.229Z,7.27
2018-04-14T00:53:46.556Z,7.24
2018-04-14T00:56:12.730Z,7.22
2018-04-14T00:58:38.794Z,7.19
2018-04-14T01:01:04.845Z,7.17
2018-04-14T01:03:30.870Z,7.16
2018-04-14T01:05:56.905Z,7.17
2018-04-14T01:08:22.910Z,7.19
2018-04-14T01:10:49.000Z,7.22
2018-04-14T01:13:15.017Z,7.27
2018-04-14T01:15:41.060Z,7.31
2018-04-14T01:18:07.126Z,7.34
2018-04-14T01:20:33.136Z,7.39
2018-04-14T01:22:59.143Z,7.44
2018-04-14T01:25:25.275Z,7.48
2018-04-14T01:27:51.269Z,7.53
2018-04-14T01:30:17.308Z,7.58
2018-04-14T01:32:43.324Z,7.62
2018-04-14T01:35:09.352Z,7.66
2018-04-14T01:37:35.438Z,7.70
2018-04-14T01:40:01.442Z,7.73
2018-04-14T01:42:27.545Z,7.75
2018-04-14T01:44:53.613Z,7.79
2018-04-14T01:47:19.833Z,7.81
2018-04-14T01:49:45.833Z,7.83
2018-04-14T01:52:12.603Z,7.85
2018-04-14T01:54:38.672Z,7.89
2018-04-14T01:57:04.733Z,7.90
2018-04-14T01:59:30.754Z,7.93
2018-04-14T02:01:56.754Z,7.96
2018-04-14T02:04:22.789Z,7.99
2018-04-14T02:06:48.821Z,8.00
2018-04-14T02:09:14.859Z,8.00
2018-04-14T02:11:40.894Z,8.00
2018-04-14T02:14:06.932Z,8.03
2018-04-14T02:16:32.973Z,8.04
2018-04-14T02:18:58.980Z,8.05
2018-04-14T02:21:25.037Z,8.06
2018-04-14T02:23:51.090Z,8.06
2018-04-14T02:26:17.252Z,8.08
2018-04-14T02:28:43.279Z,8.10
2018-04-14T02:31:09.339Z,8.14
2018-04-14T02:33:35.399Z,8.16
2018-04-14T02:36:01.448Z,8.19
2018-04-14T02:38:27.503Z,8.19
2018-04-14T02:40:53.549Z,8.23
2018-04-14T02:43:19.635Z,8.24
2018-04-14T02:45:45.671Z,8.28
2018-04-14T02:48:11.675Z,8.29
2018-04-14T02:50:37.800Z,8.30
2018-04-14T02:53:03.934Z,8.28
2018-04-14T02:55:29.935Z,8.34
2018-04-14T02:57:55.932Z,8.38
2018-04-14T03:00:22.096Z,8.39
2018-04-14T03:02:48.223Z,8.40
2018-04-14T03:05:14.312Z,8.44
2018-04-14T03:07:40.322Z,8.46
2018-04-14T03:10:06.414Z,8.47
2018-04-14T03:12:32.473Z,8.46
2018-04-14T03:14:58.480Z,8.48
2018-04-14T03:17:24.496Z,8.51
2018-04-14T03:19:50.593Z,8.53
2018-04-14T03:22:16.652Z,8.55
2018-04-14T03:24:42.660Z,8.57
2018-04-14T03:27:08.675Z,8.58
2018-04-14T03:29:34.712Z,8.58
2018-04-14T03:32:00.722Z,8.61
2018-04-14T03:34:26.723Z,8.65
2018-04-14T03:36:52.820Z,8.66
2018-04-14T03:39:18.813Z,8.70
2018-04-14T03:41:44.840Z,8.71
2018-04-14T03:44:10.892Z,8.71
2018-04-14T03:46:36.934Z,8.73
2018-04-14T03:49:02.944Z,8.75
2018-04-14T03:51:29.024Z,8.75
2018-04-14T03:53:55.039Z,8.77
2018-04-14T03:56:21.028Z,8.77
2018-04-14T05:49:00.509Z,9.02
2018-04-14T05:51:26.574Z,9.14
2018-04-14T05:53:52.632Z,9.24
2018-04-14T05:56:18.729Z,9.25
2018-04-14T05:58:44.748Z,9.31
2018-04-14T06:01:10.756Z,9.37
2018-04-14T06:03:36.784Z,9.41
2018-04-14T06:06:02.849Z,9.44
2018-04-14T06:08:28.875Z,9.42
2018-04-14T06:10:55.233Z,9.50
2018-04-14T06:13:21.276Z,9.50
2018-04-14T06:15:47.287Z,9.53
2018-04-14T06:18:13.324Z,9.58
2018-04-14T06:20:39.371Z,9.61
2018-04-14T06:23:05.368Z,9.64
2018-04-14T06:25:31.437Z,9.70
2018-04-14T06:27:57.521Z,9.73
2018-04-14T06:30:23.577Z,9.77
2018-04-14T06:32:49.620Z,9.74
2018-04-14T06:35:15.654Z,9.76
2018-04-14T06:37:41.773Z,9.84
2018-04-14T06:40:07.876Z,9.94
2018-04-14T06:42:34.072Z,10.07
2018-04-14T06:45:00.133Z,10.18
2018-04-14T06:47:26.204Z,10.16
2018-04-14T06:49:52.334Z,10.17
2018-04-14T06:52:18.481Z,10.29
2018-04-14T06:54:44.527Z,10.36
2018-04-14T06:57:10.600Z,10.42
2018-04-14T06:59:36.740Z,10.51
2018-04-14T07:02:02.880Z,10.67
2018-04-14T07:04:29.019Z,10.76
2018-04-14T07:06:54.970Z,10.86
2018-04-14T07:09:21.011Z,11.00
2018-04-14T07:11:47.092Z,11.04
2018-04-14T07:14:13.153Z,11.28
2018-04-14T07:16:39.153Z,11.14
2018-04-14T07:19:05.239Z,11.27
2018-04-14T07:21:31.314Z,11.33
2018-04-14T07:23:57.379Z,11.48
2018-04-14T07:26:23.433Z,11.42
2018-04-14T07:28:49.490Z,11.49
2018-04-14T07:31:15.576Z,11.82
2018-04-14T07:33:41.629Z,12.11
2018-04-14T07:36:07.731Z,12.14
2018-04-14T07:38:33.842Z,12.45
2018-04-14T07:40:59.920Z,12.87
2018-04-14T07:43:25.991Z,13.54
2018-04-14T07:45:52.031Z,13.66
2018-04-14T07:48:18.271Z,13.88
2018-04-14T07:50:44.316Z,14.04
2018-04-14T07:53:10.410Z,16.24
2018-04-14T07:55:36.513Z,16.40
2018-04-14T07:58:02.791Z,17.36
2018-04-14T08:00:28.828Z,16.80
2018-04-14T08:02:54.917Z,16.34
2018-04-14T08:05:20.965Z,15.55
2018-04-14T08:07:46.978Z,15.30
2018-04-14T08:10:13.028Z,15.59
2018-04-14T08:12:39.042Z,16.32
2018-04-14T08:15:05.036Z,16.34
2018-04-14T08:17:31.080Z,16.35
2018-04-14T08:19:57.160Z,16.32
2018-04-14T08:22:23.195Z,15.72
2018-04-14T08:24:49.227Z,15.70
2018-04-14T08:27:15.277Z,15.77
2018-04-14T08:29:41.294Z,15.64
2018-04-14T08:32:07.335Z,15.28
2018-04-14T08:34:33.358Z,15.05
2018-04-14T08:36:59.375Z,14.68
2018-04-14T08:39:25.414Z,14.77
2018-04-14T08:41:51.471Z,14.85
2018-04-14T08:44:17.510Z,15.05
2018-04-14T08:46:43.514Z,14.73
2018-04-14T08:49:09.583Z,14.92
2018-04-14T08:51:35.634Z,14.56
2018-04-14T08:54:01.708Z,14.56
2018-04-14T08:56:27.735Z,14.70
2018-04-14T08:58:53.720Z,14.93
2018-04-14T09:01:20.512Z,14.99
2018-04-14T09:03:46.638Z,15.29
2018-04-14T09:06:12.664Z,15.50
2018-04-14T09:08:38.720Z,15.36
2018-04-14T09:11:04.767Z,15.37
2018-04-14T09:13:30.799Z,15.25
2018-04-14T09:15:56.881Z,15.39
2018-04-14T09:18:22.893Z,15.60
2018-04-14T09:20:48.948Z,15.69
2018-04-14T09:23:14.972Z,15.97
2018-04-14T09:25:40.983Z,16.21
2018-04-14T09:28:07.026Z,16.23
2018-04-14T09:30:33.040Z,16.22
2018-04-14T09:32:59.054Z,16.26
2018-04-14T09:35:25.080Z,16.05
2018-04-14T09:37:51.111Z,15.80
2018-04-14T09:40:17.249Z,16.01
2018-04-14T09:42:43.778Z,16.20
2018-04-14T09:45:09.888Z,16.29
2018-04-14T09:47:35.949Z,16.40
2018-04-14T09:50:02.010Z,16.41
2018-04-14T09:52:28.680Z,16.20
2018-04-14T09:54:54.698Z,15.95
2018-04-14T09:57:20.742Z,15.82
2018-04-14T09:59:46.748Z,16.05
2018-04-14T10:02:12.799Z,16.33
2018-04-14T10:04:46.520Z,17.41
2018-04-14T10:07:12.573Z,18.09
2018-04-14T10:09:38.725Z,18.91
2018-04-14T10:12:04.753Z,18.23
2018-04-14T10:14:30.759Z,18.24
2018-04-14T10:16:56.813Z,19.74
2018-04-14T10:19:22.901Z,21.06
2018-04-14T10:21:48.958Z,20.31
2018-04-14T10:24:14.983Z,19.67
2018-04-14T10:26:40.989Z,19.70
2018-04-14T10:29:06.998Z,19.31
2018-04-14T10:31:33.029Z,18.74
2018-04-14T10:33:59.025Z,17.97
2018-04-14T10:36:25.020Z,17.65
2018-04-14T10:38:51.059Z,17.40
2018-04-14T10:41:17.060Z,17.15
2018-04-14T10:43:43.045Z,17.16
2018-04-14T10:46:09.082Z,17.30
2018-04-14T10:48:35.133Z,17.25
2018-04-14T10:51:01.144Z,17.33
2018-04-14T10:53:27.183Z,17.66
2018-04-14T10:55:53.172Z,17.94
2018-04-14T10:58:19.175Z,19.45
2018-04-14T11:00:45.172Z,18.80
2018-04-14T11:03:11.208Z,18.51
2018-04-14T11:05:37.193Z,18.49
2018-04-14T11:08:03.244Z,18.78
2018-04-14T11:10:29.243Z,19.29
2018-04-14T11:12:55.268Z,19.55
2018-04-14T11:15:21.290Z,19.24
2018-04-14T11:17:47.326Z,18.70
2018-04-14T11:20:13.433Z,18.76
2018-04-14T11:22:39.513Z,18.16
2018-04-14T11:25:05.520Z,18.09
2018-04-14T11:27:31.544Z,18.40
2018-04-14T11:29:57.573Z,18.31
2018-04-14T11:32:23.650Z,18.16
2018-04-14T11:34:49.670Z,18.02
2018-04-14T11:37:15.711Z,17.87
2018-04-14T11:39:41.762Z,17.83
2018-04-14T11:42:07.876Z,17.69
2018-04-14T11:44:33.905Z,17.44
2018-04-14T11:46:59.931Z,17.56
2018-04-14T11:49:26.094Z,17.78
2018-04-14T11:51:52.184Z,17.98
2018-04-14T11:54:18.497Z,18.14
2018-04-14T11:56:44.571Z,18.21
2018-04-14T11:59:10.614Z,18.10
2018-04-14T12:01:36.666Z,18.09
2018-04-14T12:04:02.700Z,18.82
2018-04-14T12:06:28.821Z,19.23
2018-04-14T12:08:54.856Z,19.07
2018-04-14T12:11:20.905Z,19.00
2018-04-14T12:13:46.963Z,18.70
2018-04-14T12:16:13.020Z,18.46
2018-04-14T12:18:39.133Z,18.40
2018-04-14T12:21:05.140Z,18.06
2018-04-14T12:23:31.169Z,18.00
2018-04-14T12:25:57.183Z,17.94
2018-04-14T12:28:23.243Z,18.22
2018-04-14T12:30:49.327Z,18.51
2018-04-14T12:33:15.413Z,18.87
2018-04-14T12:35:41.476Z,18.57
2018-04-14T12:38:07.543Z,18.50
2018-04-14T12:40:33.562Z,19.13
2018-04-14T12:42:59.572Z,19.42
2018-04-14T12:45:25.637Z,19.58
2018-04-14T12:47:51.677Z,19.19
2018-04-14T12:50:17.714Z,18.90
2018-04-14T12:52:43.824Z,18.64
2018-04-14T12:55:09.938Z,18.41
2018-04-14T12:57:35.986Z,18.32
2018-04-14T13:00:02.013Z,18.56
2018-04-14T13:02:28.152Z,18.91
2018-04-14T13:04:54.262Z,18.83
2018-04-14T13:07:20.352Z,19.04
2018-04-14T13:09:46.340Z,18.94
2018-04-14T13:12:12.373Z,18.43
2018-04-14T13:14:38.491Z,18.56
2018-04-14T13:17:04.565Z,18.99
2018-04-14T13:19:30.574Z,19.30
2018-04-14T13:21:56.633Z,19.69
2018-04-14T13:24:22.797Z,20.28
2018-04-14T13:26:48.812Z,20.15
2018-04-14T13:29:14.838Z,20.96
2018-04-14T13:31:40.882Z,21.29
2018-04-14T13:34:06.902Z,22.22
2018-04-14T13:36:32.930Z,23.13
2018-04-14T13:38:58.990Z,23.77
2018-04-14T13:41:25.110Z,24.27
2018-04-14T13:43:51.081Z,25.06
2018-04-14T13:46:17.144Z,24.86
2018-04-14T13:48:43.191Z,24.40
2018-04-14T13:51:09.188Z,23.76
2018-04-14T13:53:35.230Z,23.51
2018-04-14T13:56:01.234Z,24.17
2018-04-14T13:58:28.017Z,23.86
2018-04-14T14:00:54.111Z,23.53
2018-04-14T14:03:20.117Z,22.46
2018-04-14T14:05:46.116Z,21.95
2018-04-14T14:08:12.194Z,22.12
2018-04-14T14:10:38.273Z,22.05
2018-04-14T14:13:04.292Z,22.01
2018-04-14T14:15:30.362Z,22.45
2018-04-14T14:17:56.433Z,21.84
2018-04-14T14:20:22.491Z,22.30
2018-04-14T14:22:48.626Z,22.87
2018-04-14T14:25:15.278Z,23.70
2018-04-14T14:27:41.325Z,23.89
2018-04-14T14:30:07.387Z,23.69
2018-04-14T14:32:33.384Z,24.37
2018-04-14T14:34:59.384Z,24.76
2018-04-14T14:37:25.396Z,24.76
2018-04-14T14:39:51.456Z,24.95
2018-04-14T14:42:17.465Z,25.08
2018-04-14T14:44:43.538Z,25.27
2018-04-14T14:47:09.623Z,24.08
2018-04-14T14:49:35.622Z,23.74
2018-04-14T14:52:01.643Z,22.85
2018-04-14T14:54:27.697Z,22.81
2018-04-14T14:56:53.830Z,22.98
2018-04-14T14:59:19.844Z,23.96
2018-04-14T15:01:45.859Z,24.38
2018-04-14T15:04:11.984Z,23.95
2018-04-14T15:06:38.211Z,24.46
2018-04-14T15:09:05.142Z,25.11
2018-04-14T15:11:31.204Z,24.70
2018-04-14T15:13:57.234Z,23.15
2018-04-14T15:16:23.307Z,22.59
2018-04-14T15:18:49.339Z,21.66
2018-04-14T15:21:15.359Z,21.09
2018-04-14T15:23:41.378Z,21.32
2018-04-14T15:26:07.435Z,21.63
2018-04-14T15:28:33.516Z,21.57
2018-04-14T15:30:59.493Z,21.11
2018-04-14T15:33:25.572Z,20.68
2018-04-14T15:35:51.566Z,20.00
2018-04-14T15:38:17.583Z,19.93
2018-04-14T15:40:43.654Z,20.06
2018-04-14T15:43:09.810Z,20.36
2018-04-14T15:45:35.910Z,20.02
2018-04-14T15:48:01.924Z,20.18
2018-04-14T15:50:27.949Z,20.40
2018-04-14T15:52:54.025Z,20.96
2018-04-14T15:55:20.107Z,21.38
2018-04-14T15:57:46.158Z,22.19
2018-04-14T16:00:12.173Z,22.23
2018-04-14T16:02:38.316Z,20.96
2018-04-14T16:05:04.333Z,20.40
2018-04-14T16:07:30.524Z,20.88
2018-04-14T16:09:56.546Z,21.54
2018-04-14T16:12:22.731Z,21.48
2018-04-14T16:14:48.799Z,21.07
2018-04-14T16:17:14.849Z,21.35
2018-04-14T16:19:40.872Z,22.96
2018-04-14T16:22:06.930Z,23.33
2018-04-14T16:24:33.008Z,22.02
2018-04-14T16:26:59.014Z,21.55
2018-04-14T16:29:25.026Z,20.42
2018-04-14T16:31:51.132Z,20.11
2018-04-14T16:34:17.156Z,19.53
2018-04-14T16:36:43.160Z,18.98
2018-04-14T16:39:09.239Z,18.49
2018-04-14T16:41:35.259Z,18.15
2018-04-14T16:44:01.269Z,17.76
2018-04-14T16:46:27.274Z,17.49
2018-04-14T16:48:53.332Z,17.37
2018-04-14T16:51:19.321Z,17.06
2018-04-14T16:53:45.392Z,16.91
2018-04-14T16:56:11.403Z,16.66
2018-04-14T16:58:37.395Z,16.59
2018-04-14T17:01:03.402Z,16.33
2018-04-14T17:03:29.439Z,16.20
2018-04-14T17:05:55.556Z,16.20
2018-04-14T17:08:21.588Z,15.98
2018-04-14T17:10:47.705Z,15.97
2018-04-14T17:13:13.769Z,15.64
2018-04-14T17:15:39.867Z,15.59
2018-04-14T17:18:05.962Z,15.48
2018-04-14T17:20:32.000Z,15.35
2018-04-14T17:22:58.092Z,15.20
2018-04-14T17:25:24.296Z,15.09
2018-04-14T17:27:50.341Z,14.94
2018-04-14T17:30:16.377Z,14.85
2018-04-14T17:32:42.648Z,14.74
2018-04-14T17:35:08.749Z,14.67
2018-04-14T17:37:34.898Z,14.67
2018-04-14T17:40:00.887Z,14.55
2018-04-14T17:42:26.977Z,14.31
2018-04-14T17:44:53.045Z,14.24
2018-04-14T17:47:19.053Z,14.08
2018-04-14T17:49:45.078Z,14.00
2018-04-14T17:52:11.117Z,13.87
2018-04-14T17:54:37.101Z,13.87
2018-04-14T17:57:03.226Z,13.75
2018-04-14T17:59:29.261Z,13.70
2018-04-14T18:01:55.305Z,13.67
2018-04-14T18:04:21.320Z,13.64
2018-04-14T18:06:47.331Z,13.57
2018-04-14T18:09:13.320Z,13.49
2018-04-14T18:11:39.345Z,13.40
2018-04-14T18:14:05.440Z,13.35
2018-04-14T18:16:31.458Z,13.25
2018-04-14T18:18:57.475Z,13.12
2018-04-14T18:21:23.481Z,13.12
2018-04-14T18:23:49.528Z,13.00
2018-04-14T18:26:15.568Z,12.94
2018-04-14T18:28:41.563Z,12.88
2018-04-14T18:31:07.566Z,12.79
2018-04-14T18:33:33.602Z,12.75
2018-04-14T18:35:59.608Z,12.68
2018-04-14T18:38:25.635Z,12.62
2018-04-14T18:40:51.641Z,12.59
2018-04-14T18:43:17.737Z,12.52
2018-04-14T18:45:43.772Z,12.48
2018-04-14T18:48:09.814Z,12.47
2018-04-14T18:50:35.846Z,12.39
2018-04-14T18:53:01.911Z,12.39
2018-04-14T18:55:27.933Z,12.36
2018-04-14T18:57:53.956Z,12.33
2018-04-14T19:00:21.793Z,12.32
2018-04-14T19:02:48.156Z,12.30
2018-04-14T19:05:14.170Z,12.30
2018-04-14T19:07:40.213Z,12.20
2018-04-14T19:10:06.373Z,12.22
2018-04-14T19:12:32.519Z,12.17
2018-04-14T19:14:58.555Z,12.14
2018-04-14T19:17:24.753Z,12.12
2018-04-14T19:19:50.773Z,12.12
2018-04-14T19:22:16.853Z,12.12
2018-04-14T19:24:42.942Z,12.12
2018-04-14T19:27:09.019Z,12.09
2018-04-14T19:29:35.052Z,12.08
2018-04-14T19:32:01.133Z,12.06
2018-04-14T19:34:27.128Z,12.03
2018-04-14T19:36:53.161Z,12.02
2018-04-14T19:39:19.227Z,11.99
2018-04-14T19:41:45.261Z,12.00
2018-04-14T19:44:11.460Z,11.98
2018-04-14T19:46:37.553Z,11.95
2018-04-14T19:49:03.581Z,11.93
2018-04-14T19:51:29.589Z,11.92
2018-04-14T19:53:55.688Z,11.91
2018-04-14T19:56:21.778Z,11.87
2018-04-14T19:58:47.791Z,11.84
2018-04-14T20:01:13.852Z,11.80
2018-04-14T20:03:39.950Z,11.80
2018-04-14T20:06:07.057Z,11.82
2018-04-14T20:08:33.163Z,11.80
2018-04-14T20:10:59.209Z,11.81
2018-04-14T20:13:25.292Z,11.78
2018-04-14T20:15:51.338Z,11.77
2018-04-14T20:18:17.389Z,11.76
2018-04-14T20:20:43.516Z,11.77
2018-04-14T20:23:09.602Z,11.77
2018-04-14T20:25:35.610Z,11.76
2018-04-14T20:28:01.663Z,11.72
2018-04-14T20:30:27.752Z,11.73
2018-04-14T20:32:53.791Z,11.72
2018-04-14T20:35:19.813Z,11.71
2018-04-14T20:37:45.832Z,11.70
2018-04-14T20:40:11.852Z,11.68
2018-04-14T20:42:37.895Z,11.68
2018-04-14T20:45:03.956Z,11.68
2018-04-14T20:47:30.012Z,11.68
2018-04-14T20:49:56.101Z,11.68
2018-04-14T20:52:22.192Z,11.67
2018-04-14T20:54:48.256Z,11.67
2018-04-14T20:57:14.288Z,11.65
2018-04-14T20:59:40.341Z,11.66
2018-04-14T21:02:06.351Z,11.65
2018-04-14T21:04:32.372Z,11.66
2018-04-14T21:06:58.512Z,11.69
2018-04-14T21:09:24.543Z,11.69
2018-04-14T21:11:50.618Z,11.69
2018-04-14T21:14:17.024Z,11.71
2018-04-14T21:16:43.125Z,11.70
2018-04-14T21:19:09.134Z,11.69
2018-04-14T21:21:35.277Z,11.68
2018-04-14T21:24:01.302Z,11.70
2018-04-14T21:26:27.407Z,11.68
2018-04-14T21:28:53.421Z,11.66
2018-04-14T21:31:19.452Z,11.64
2018-04-14T21:33:45.477Z,11.64
2018-04-14T21:36:11.592Z,11.67
2018-04-14T21:38:37.627Z,11.64
2018-04-14T21:41:03.650Z,11.65
2018-04-14T21:43:29.735Z,11.62
2018-04-14T21:45:55.724Z,11.60
2018-04-14T21:48:21.820Z,11.58
2018-04-14T21:50:47.933Z,11.51
2018-04-14T21:53:13.973Z,11.46
2018-04-14T21:55:39.998Z,11.37
2018-04-14T21:58:06.013Z,11.26
2018-04-14T22:00:32.157Z,11.22
2018-04-14T22:02:58.188Z,11.18
2018-04-14T22:05:24.200Z,11.16
2018-04-14T22:07:50.264Z,11.11
2018-04-14T22:10:16.347Z,11.06
2018-04-14T22:12:42.425Z,11.06
2018-04-14T22:15:08.438Z,11.03
2018-04-14T22:17:34.485Z,11.00
2018-04-14T22:20:00.646Z,10.99
2018-04-14T22:22:26.777Z,10.99
2018-04-14T22:24:52.785Z,10.96
2018-04-14T22:27:18.827Z,10.96
2018-04-14T22:29:45.390Z,10.91
2018-04-14T22:32:11.455Z,10.91
2018-04-14T22:34:37.536Z,10.91
2018-04-14T22:37:03.673Z,10.90
2018-04-14T22:39:29.736Z,10.90
2018-04-14T22:41:55.763Z,10.87
2018-04-14T22:44:21.854Z,10.87
2018-04-14T22:46:47.841Z,10.86
2018-04-14T22:49:13.922Z,10.83
2018-04-14T22:51:39.987Z,10.84
2018-04-14T22:54:05.999Z,10.84
2018-04-14T22:56:32.061Z,10.86
2018-04-14T22:58:58.079Z,10.82
2018-04-14T23:01:24.096Z,10.79
2018-04-14T23:03:50.176Z,10.79
2018-04-14T23:06:16.698Z,10.79
2018-04-14T23:08:42.893Z,10.79
2018-04-14T23:11:08.951Z,10.75
2018-04-14T23:13:34.976Z,10.72
2018-04-14T23:16:01.046Z,10.72
2018-04-14T23:18:27.144Z,10.70
2018-04-14T23:20:53.210Z,10.68
2018-04-14T23:23:19.208Z,10.66
2018-04-14T23:25:45.252Z,10.68
2018-04-14T23:28:11.264Z,10.66
2018-04-14T23:30:37.273Z,10.66
2018-04-14T23:33:03.269Z,10.65
2018-04-14T23:35:29.304Z,10.66
2018-04-14T23:37:55.312Z,10.63
2018-04-14T23:40:21.332Z,10.62
2018-04-14T23:42:47.369Z,10.60
2018-04-14T23:45:13.377Z,10.57
2018-04-14T23:47:39.404Z,10.52
2018-04-14T23:50:05.421Z,10.50
2018-04-14T23:52:31.452Z,10.51
2018-04-14T23:54:57.479Z,10.52
2018-04-14T23:57:23.483Z,10.50
2018-04-14T23:59:49.478Z,10.47
